createdAt,value
2023-04-10T03:00:38.172Z,7.20
2023-04-10T03:03:29.180Z,7.10
2023-04-10T03:05:58.416Z,6.90
2023-04-10T03:08:31.565Z,6.80
2023-04-10T03:10:59.550Z,6.70
2023-04-10T03:13:27.447Z,6.70
2023-04-10T03:15:56.779Z,6.70
2023-04-10T03:18:25.041Z,6.70
2023-04-10T03:20:54.417Z,6.70
2023-04-10T03:23:22.306Z,6.70
2023-04-10T03:25:52.158Z,6.80
2023-04-10T03:28:20.221Z,6.80
2023-04-10T03:30:48.888Z,6.70
2023-04-10T03:33:18.166Z,6.60
2023-04-10T03:35:47.434Z,6.60
2023-04-10T03:38:15.532Z,6.70
2023-04-10T03:40:43.405Z,6.70
2023-04-10T03:43:12.337Z,6.60
2023-04-10T03:45:40.378Z,6.70
2023-04-10T03:48:08.275Z,6.70
2023-04-10T03:50:44.639Z,6.80
2023-04-10T03:53:12.487Z,6.80
2023-04-10T03:55:41.108Z,6.80
2023-04-10T03:58:08.965Z,6.70
2023-04-10T04:00:38.128Z,6.70
2023-04-10T04:03:15.017Z,6.80
2023-04-10T04:06:02.912Z,6.90
2023-04-10T04:08:40.132Z,6.90
2023-04-10T04:11:29.770Z,7.00
2023-04-10T04:14:07.972Z,6.80
2023-04-10T04:16:49.346Z,6.80
2023-04-10T04:19:43.113Z,6.80
2023-04-10T04:22:25.758Z,6.70
2023-04-10T04:25:29.221Z,6.70
2023-04-10T04:28:18.003Z,6.60
2023-04-10T04:31:04.615Z,6.70
2023-04-10T04:33:51.046Z,6.70
2023-04-10T04:36:28.610Z,6.70
2023-04-10T04:39:17.169Z,6.80
2023-04-10T04:42:14.044Z,6.80
2023-04-10T04:45:03.426Z,6.90
2023-04-10T04:47:57.465Z,6.80
2023-04-10T04:50:36.426Z,6.80
2023-04-10T04:53:16.924Z,6.70
2023-04-10T04:56:07.310Z,6.60
2023-04-10T04:58:54.052Z,6.50
2023-04-10T05:01:54.475Z,6.40
2023-04-10T05:04:54.385Z,6.40
2023-04-10T05:07:40.826Z,6.50
2023-04-10T05:10:27.399Z,6.50
2023-04-10T05:13:28.544Z,6.60
2023-04-10T05:16:13.850Z,6.80
2023-04-10T05:18:57.200Z,6.80
2023-04-10T05:21:48.314Z,6.90
2023-04-10T05:24:34.963Z,7.00
2023-04-10T05:27:38.493Z,7.00
2023-04-10T05:30:27.668Z,7.00
2023-04-10T05:33:12.806Z,7.00
2023-04-10T05:35:59.106Z,7.10
2023-04-10T05:38:35.758Z,7.10
2023-04-10T05:41:14.546Z,7.10
2023-04-10T05:44:02.778Z,7.10
2023-04-10T05:46:48.922Z,7.00
2023-04-10T05:49:35.064Z,7.10
2023-04-10T05:52:17.579Z,7.10
2023-04-10T05:55:09.622Z,7.10
2023-04-10T05:57:56.715Z,7.10
2023-04-10T06:00:42.944Z,7.20
2023-04-10T06:03:31.516Z,7.30
2023-04-10T06:06:03.425Z,7.30
2023-04-10T06:08:32.312Z,7.40
2023-04-10T06:11:00.749Z,7.40
2023-04-10T06:13:29.944Z,7.50
2023-04-10T06:16:01.071Z,7.60
2023-04-10T06:18:31.988Z,7.70
2023-04-10T06:21:01.858Z,7.80
2023-04-10T06:23:29.977Z,7.80
2023-04-10T06:25:57.910Z,7.90
2023-04-10T06:28:25.802Z,8.00
2023-04-10T06:30:57.648Z,8.00
2023-04-10T06:33:35.899Z,8.10
2023-04-10T06:36:06.320Z,8.20
2023-04-10T06:38:39.441Z,8.30
2023-04-10T06:41:07.821Z,8.40
2023-04-10T06:43:36.194Z,8.50
2023-04-10T06:46:04.933Z,8.50
2023-04-10T06:48:34.675Z,8.70
2023-04-10T06:51:02.780Z,8.80
2023-04-10T06:53:31.401Z,8.90
2023-04-10T06:56:01.557Z,9.00
2023-04-10T06:58:31.335Z,9.10
2023-04-10T07:01:04.156Z,9.20
2023-04-10T07:03:32.414Z,9.30
2023-04-10T07:06:03.105Z,9.40
2023-04-10T07:08:31.033Z,9.40
2023-04-10T07:10:59.103Z,9.50
2023-04-10T07:13:26.988Z,9.50
2023-04-10T07:15:54.895Z,9.60
2023-04-10T07:18:22.859Z,9.80
2023-04-10T07:20:52.302Z,9.90
2023-04-10T07:23:22.537Z,10.10
2023-04-10T07:25:51.590Z,10.10
2023-04-10T07:28:19.453Z,10.20
2023-04-10T07:30:47.340Z,10.20
2023-04-10T07:33:15.700Z,10.30
2023-04-10T07:35:43.781Z,10.50
2023-04-10T07:38:13.075Z,10.60
2023-04-10T07:40:42.269Z,10.70
2023-04-10T07:43:10.220Z,10.60
2023-04-10T07:45:38.091Z,10.70
2023-04-10T07:48:07.281Z,10.80
2023-04-10T07:50:36.044Z,10.80
2023-04-10T07:53:07.656Z,10.80
2023-04-10T07:55:39.224Z,10.90
2023-04-10T07:58:08.450Z,11.00
2023-04-10T08:00:36.460Z,11.10
2023-04-10T08:03:06.257Z,11.20
2023-04-10T08:05:34.469Z,11.20
2023-04-10T08:08:02.306Z,11.20
2023-04-10T08:10:30.338Z,11.30
2023-04-10T08:12:58.225Z,11.30
2023-04-10T08:15:27.479Z,11.40
2023-04-10T08:17:55.512Z,11.50
2023-04-10T08:20:23.389Z,11.50
2023-04-10T08:22:51.247Z,11.60
2023-04-10T08:25:19.084Z,11.70
2023-04-10T08:27:46.931Z,11.70
2023-04-10T08:30:14.936Z,11.80
2023-04-10T08:32:44.128Z,11.90
2023-04-10T08:35:11.955Z,12.00
2023-04-10T08:37:40.253Z,12.10
2023-04-10T08:40:09.621Z,12.10
2023-04-10T08:42:37.526Z,12.20
2023-04-10T08:45:06.082Z,12.30
2023-04-10T08:47:37.844Z,12.40
2023-04-10T08:50:11.811Z,12.40
2023-04-10T08:52:45.075Z,12.50
2023-04-10T08:55:14.935Z,12.60
2023-04-10T08:57:48.012Z,12.80
2023-04-10T09:00:23.411Z,12.90
2023-04-10T09:02:57.779Z,13.10
2023-04-10T09:05:28.388Z,13.20
2023-04-10T09:07:56.209Z,13.30
2023-04-10T09:10:24.400Z,13.40
2023-04-10T09:12:53.097Z,13.60
2023-04-10T09:15:21.101Z,13.70
2023-04-10T09:17:57.855Z,13.80
2023-04-10T09:20:29.402Z,13.90
2023-04-10T09:22:57.872Z,13.90
2023-04-10T09:25:34.487Z,13.90
2023-04-10T09:28:04.784Z,13.70
2023-04-10T09:30:37.374Z,13.80
2023-04-10T09:33:21.442Z,13.80
2023-04-10T09:35:51.269Z,13.80
2023-04-10T09:38:20.507Z,13.90
2023-04-10T09:40:49.269Z,13.90
2023-04-10T09:43:25.146Z,13.90
2023-04-10T09:45:54.337Z,14.10
2023-04-10T09:48:25.491Z,14.30
2023-04-10T09:50:54.781Z,14.50
2023-04-10T09:53:22.868Z,14.80
2023-04-10T09:55:51.560Z,15.00
2023-04-10T09:58:19.935Z,15.30
2023-04-10T10:00:49.385Z,15.40
2023-04-10T10:03:18.994Z,15.40
2023-04-10T10:05:50.142Z,15.80
2023-04-10T10:08:19.690Z,16.00
2023-04-10T10:10:49.516Z,16.10
2023-04-10T10:13:22.813Z,16.40
2023-04-10T10:15:58.042Z,16.60
2023-04-10T10:18:33.955Z,16.80
2023-04-10T10:21:03.557Z,16.90
2023-04-10T10:23:34.592Z,17.00
2023-04-10T10:26:06.031Z,17.20
2023-04-10T10:28:35.232Z,17.30
2023-04-10T10:31:05.080Z,17.40
2023-04-10T10:33:36.422Z,17.20
2023-04-10T10:36:05.538Z,16.80
2023-04-10T10:38:35.365Z,16.80
2023-04-10T10:41:11.610Z,16.90
2023-04-10T10:43:49.450Z,17.30
2023-04-10T10:46:25.493Z,17.60
2023-04-10T10:49:00.355Z,17.90
2023-04-10T10:51:47.703Z,18.10
2023-04-10T10:54:34.426Z,18.20
2023-04-10T10:57:06.348Z,18.40
2023-04-10T10:59:58.952Z,18.50
2023-04-10T11:02:26.991Z,18.60
2023-04-10T11:04:54.957Z,18.50
2023-04-10T11:07:22.989Z,18.60
2023-04-10T11:09:53.646Z,18.60
2023-04-10T11:12:24.147Z,18.70
2023-04-10T11:15:00.448Z,18.80
2023-04-10T11:17:50.642Z,19.10
2023-04-10T11:20:20.858Z,19.20
2023-04-10T11:23:20.402Z,19.10
2023-04-10T11:25:51.374Z,18.70
2023-04-10T11:28:38.369Z,18.30
2023-04-10T11:31:19.635Z,18.20
2023-04-10T11:33:48.322Z,18.30
2023-04-10T11:36:18.391Z,18.50
2023-04-10T11:38:56.654Z,18.50
2023-04-10T11:41:30.755Z,18.90
2023-04-10T11:43:59.236Z,19.20
2023-04-10T11:46:27.224Z,19.40
2023-04-10T11:48:56.939Z,19.30
2023-04-10T11:51:24.997Z,18.80
2023-04-10T11:54:06.182Z,18.50
2023-04-10T11:56:36.223Z,18.60
2023-04-10T11:59:07.479Z,18.80
2023-04-10T12:01:35.682Z,18.90
2023-04-10T12:04:03.900Z,19.00
2023-04-10T12:06:32.408Z,19.20
2023-04-10T12:09:00.268Z,19.10
2023-04-10T12:11:29.717Z,19.30
2023-04-10T12:13:59.391Z,19.60
2023-04-10T12:16:27.640Z,19.70
2023-04-10T12:18:56.321Z,19.90
2023-04-10T12:21:24.294Z,20.20
2023-04-10T12:23:52.930Z,20.40
2023-04-10T12:26:22.012Z,19.90
2023-04-10T12:28:54.703Z,20.10
2023-04-10T12:31:29.680Z,19.80
2023-04-10T12:33:58.477Z,19.40
2023-04-10T12:36:29.437Z,19.60
2023-04-10T12:38:58.384Z,19.70
2023-04-10T12:41:27.759Z,19.40
2023-04-10T12:44:08.660Z,19.10
2023-04-10T12:46:38.839Z,18.70
2023-04-10T12:49:14.063Z,18.70
2023-04-10T12:51:47.241Z,19.00
2023-04-10T12:54:29.306Z,19.20
2023-04-10T12:56:57.649Z,19.30
2023-04-10T12:59:26.407Z,19.40
2023-04-10T13:01:56.365Z,19.60
2023-04-10T13:04:24.872Z,19.60
2023-04-10T13:06:53.505Z,19.50
2023-04-10T13:09:21.762Z,19.40
2023-04-10T13:11:51.554Z,19.50
2023-04-10T13:14:19.939Z,19.10
2023-04-10T13:16:47.841Z,18.80
2023-04-10T13:19:17.016Z,18.80
2023-04-10T13:21:44.889Z,19.00
2023-04-10T13:24:14.686Z,18.80
2023-04-10T13:26:43.991Z,18.60
2023-04-10T13:29:11.922Z,18.70
2023-04-10T13:31:40.106Z,18.90
2023-04-10T13:34:08.017Z,19.20
2023-04-10T13:36:37.325Z,19.40
2023-04-10T13:39:05.686Z,19.60
2023-04-10T13:41:33.785Z,19.90
2023-04-10T13:44:01.668Z,20.30
2023-04-10T13:46:29.535Z,21.10
2023-04-10T13:48:58.337Z,21.80
2023-04-10T13:51:26.549Z,22.50
2023-04-10T13:53:55.798Z,22.70
2023-04-10T13:56:23.692Z,22.50
2023-04-10T13:58:51.779Z,21.90
2023-04-10T14:01:19.823Z,21.50
2023-04-10T14:03:47.898Z,20.80
2023-04-10T14:06:15.856Z,20.60
2023-04-10T14:08:43.674Z,20.40
2023-04-10T14:11:12.895Z,20.80
2023-04-10T14:13:41.070Z,21.20
2023-04-10T14:16:09.507Z,21.10
2023-04-10T14:18:37.656Z,21.70
2023-04-10T14:21:05.934Z,21.70
2023-04-10T14:23:33.786Z,21.10
2023-04-10T14:26:02.050Z,20.90
2023-04-10T14:28:31.481Z,20.90
2023-04-10T14:30:59.375Z,20.60
2023-04-10T14:33:27.262Z,20.40
2023-04-10T14:35:55.588Z,20.40
2023-04-10T14:38:23.613Z,20.40
2023-04-10T14:40:51.822Z,20.50
2023-04-10T14:43:19.759Z,20.50
2023-04-10T14:45:48.987Z,20.50
2023-04-10T14:48:19.678Z,20.40
2023-04-10T14:50:48.220Z,20.00
2023-04-10T14:53:16.100Z,19.60
2023-04-10T14:55:44.606Z,19.50
2023-04-10T14:58:12.732Z,19.40
2023-04-10T15:00:40.958Z,19.30
2023-04-10T15:03:10.253Z,19.30
2023-04-10T15:05:38.276Z,19.20
2023-04-10T15:08:06.197Z,19.30
2023-04-10T15:10:34.048Z,19.40
2023-04-10T15:13:01.976Z,19.50
2023-04-10T15:15:29.847Z,19.40
2023-04-10T15:17:58.002Z,19.40
2023-04-10T15:20:27.279Z,19.30
2023-04-10T15:22:55.200Z,19.30
2023-04-10T15:25:23.035Z,19.20
2023-04-10T15:27:50.930Z,19.30
2023-04-10T15:30:19.213Z,19.30
2023-04-10T15:32:47.176Z,19.20
2023-04-10T15:35:15.049Z,19.10
2023-04-10T15:37:44.217Z,19.00
2023-04-10T15:40:12.491Z,18.90
2023-04-10T15:42:40.338Z,18.90
2023-04-10T15:45:08.529Z,19.00
2023-04-10T15:47:36.786Z,19.10
2023-04-10T15:50:05.050Z,19.00
2023-04-10T15:52:33.831Z,18.90
2023-04-10T15:55:03.102Z,18.90
2023-04-10T15:57:31.066Z,18.80
2023-04-10T16:00:00.563Z,18.70
2023-04-10T16:02:28.840Z,18.60
2023-04-10T16:04:56.950Z,18.40
2023-04-10T16:07:24.923Z,18.40
2023-04-10T16:09:55.056Z,18.30
2023-04-10T16:12:24.261Z,18.20
2023-04-10T16:14:52.079Z,18.20
2023-04-10T16:17:19.997Z,18.10
2023-04-10T16:19:48.171Z,18.00
2023-04-10T16:22:16.018Z,18.00
2023-04-10T16:24:43.907Z,17.90
2023-04-10T16:27:12.361Z,17.80
2023-04-10T16:29:41.614Z,17.80
2023-04-10T16:32:09.550Z,17.80
2023-04-10T16:34:37.409Z,17.70
2023-04-10T16:37:05.329Z,17.70
2023-04-10T16:39:33.212Z,17.60
2023-04-10T16:42:01.316Z,17.60
2023-04-10T16:44:29.125Z,17.60
2023-04-10T16:46:58.387Z,17.60
2023-04-10T16:49:26.628Z,17.50
2023-04-10T16:51:54.488Z,17.50
2023-04-10T16:54:22.352Z,17.50
2023-04-10T16:56:50.247Z,17.40
2023-04-10T16:59:18.181Z,17.40
2023-04-10T17:01:46.107Z,17.40
2023-04-10T17:04:16.733Z,17.30
2023-04-10T17:06:44.687Z,17.30
2023-04-10T17:09:12.517Z,17.30
2023-04-10T17:11:40.432Z,17.30
2023-04-10T17:14:09.454Z,17.30
2023-04-10T17:16:37.515Z,17.20
2023-04-10T17:19:05.474Z,17.20
2023-04-10T17:21:35.449Z,17.20
2023-04-10T17:24:03.386Z,17.10
2023-04-10T17:26:32.045Z,17.10
2023-04-10T17:28:59.864Z,17.00
2023-04-10T17:31:27.743Z,16.90
2023-04-10T17:33:55.839Z,16.90
2023-04-10T17:36:24.354Z,16.90
2023-04-10T17:38:54.275Z,16.80
2023-04-10T17:41:22.615Z,16.80
2023-04-10T17:43:51.078Z,16.70
2023-04-10T17:46:18.911Z,16.70
2023-04-10T17:48:47.118Z,16.70
2023-04-10T17:51:15.249Z,16.60
2023-04-10T17:53:43.133Z,16.60
2023-04-10T17:56:20.791Z,16.50
2023-04-10T17:58:48.695Z,16.50
2023-04-10T18:01:23.035Z,16.50
2023-04-10T18:03:50.987Z,16.20
2023-04-10T18:06:18.870Z,15.90
2023-04-10T18:08:46.872Z,15.70
2023-04-10T18:11:14.889Z,15.70
2023-04-10T18:13:44.329Z,15.50
2023-04-10T18:16:12.283Z,15.50
2023-04-10T18:18:41.851Z,15.50
2023-04-10T18:21:10.408Z,15.60
2023-04-10T18:23:39.399Z,15.70
2023-04-10T18:26:07.763Z,15.70
2023-04-10T18:28:36.343Z,15.80
2023-04-10T18:31:06.439Z,15.80
2023-04-10T18:33:34.734Z,15.80
2023-04-10T18:36:03.381Z,15.80
2023-04-10T18:38:31.959Z,15.80
2023-04-10T18:41:01.752Z,15.80
2023-04-10T18:43:29.880Z,15.80
2023-04-10T18:45:58.312Z,15.80
2023-04-10T18:48:27.817Z,15.80
2023-04-10T18:50:56.227Z,15.80
2023-04-10T18:53:24.306Z,15.80
2023-04-10T18:55:52.799Z,15.80
2023-04-10T18:58:21.314Z,15.80
2023-04-10T19:00:58.014Z,15.80
2023-04-10T19:03:28.016Z,15.80
2023-04-10T19:05:57.294Z,15.90
2023-04-10T19:08:26.878Z,15.90
2023-04-10T19:10:54.861Z,16.00
2023-04-10T19:13:24.241Z,15.90
2023-04-10T19:15:53.231Z,15.90
2023-04-10T19:18:27.776Z,15.80
2023-04-10T19:20:56.375Z,15.70
2023-04-10T19:23:28.612Z,15.60
2023-04-10T19:25:58.616Z,15.40
2023-04-10T19:28:26.693Z,15.40
2023-04-10T19:30:56.992Z,15.30
2023-04-10T19:33:30.846Z,15.20
2023-04-10T19:35:59.177Z,15.00
2023-04-10T19:38:30.618Z,14.90
2023-04-10T19:40:58.435Z,14.80
2023-04-10T19:43:26.535Z,14.80
2023-04-10T19:45:55.058Z,14.70
2023-04-10T19:48:24.084Z,14.60
2023-04-10T19:50:53.761Z,14.50
2023-04-10T19:53:21.620Z,14.40
2023-04-10T19:55:50.225Z,14.30
2023-04-10T19:58:35.906Z,14.20
2023-04-10T20:01:08.539Z,14.20
2023-04-10T20:03:37.613Z,14.30
2023-04-10T20:06:08.288Z,14.20
2023-04-10T20:08:36.733Z,14.20
2023-04-10T20:11:06.281Z,14.20
2023-04-10T20:13:34.882Z,14.20
2023-04-10T20:16:03.354Z,14.20
2023-04-10T20:18:32.628Z,14.20
2023-04-10T20:21:00.868Z,14.20
2023-04-10T20:23:30.405Z,14.20
2023-04-10T20:25:58.345Z,14.10
2023-04-10T20:28:26.338Z,14.00
2023-04-10T20:30:54.261Z,13.90
2023-04-10T20:33:22.118Z,13.90
2023-04-10T20:35:50.012Z,13.80
2023-04-10T20:38:18.991Z,13.80
2023-04-10T20:40:48.181Z,13.80
2023-04-10T20:43:18.496Z,13.90
2023-04-10T20:45:46.532Z,13.90
2023-04-10T20:48:14.461Z,14.00
2023-04-10T20:50:44.576Z,14.10
2023-04-10T20:53:12.705Z,14.10
2023-04-10T20:55:40.812Z,14.20
2023-04-10T20:58:10.372Z,14.10
2023-04-10T21:00:39.527Z,14.20
2023-04-10T21:03:07.948Z,14.20
2023-04-10T21:05:40.912Z,14.20
2023-04-10T21:08:09.078Z,14.20
2023-04-10T21:10:43.696Z,14.20
2023-04-10T21:13:14.043Z,14.20
2023-04-10T21:15:42.119Z,14.20
2023-04-10T21:18:10.650Z,14.20
2023-04-10T21:20:38.563Z,14.20
2023-04-10T21:23:06.429Z,14.20
2023-04-10T21:25:35.768Z,14.20
2023-04-10T21:28:03.821Z,14.10
2023-04-10T21:30:32.949Z,14.10
2023-04-10T21:33:00.803Z,14.10
2023-04-10T21:35:28.638Z,14.10
2023-04-10T21:38:00.013Z,14.00
2023-04-10T21:40:33.826Z,14.00
2023-04-10T21:43:01.906Z,13.90
2023-04-10T21:45:29.943Z,13.80
2023-04-10T21:48:00.259Z,13.90
2023-04-10T21:50:28.145Z,13.80
2023-04-10T21:52:56.080Z,13.70
2023-04-10T21:55:23.981Z,13.60
2023-04-10T21:57:51.786Z,13.60
2023-04-10T22:00:22.044Z,13.70
